Main page
METAR-TAF:

METAR-TAF

Airports :

Evansville Regional Airport

Evansville, Indiana, United States

latitude: 38-02-35N, longitude: 087-31-13W, elevation: 417 ft

Current weather observation

The report was made 46 minutes ago, at 02:54 UTC
Wind 5 mph from the West/Northwest
Temperature 70°F
Humidity 53%
Pressure 30.06 in. Hg
Visibility: 10 miles
Clear sky

METAR: KEVV 290254Z 30004KT 10SM CLR 21/11 A3006 RMK AO2 SLP174 T02110111 53013

Time: 22:40 (03:40 UTC)

Forecast

The report was made 4 hours and 20 minutes ago, at 23:20 UTC
Forecast valid from 29 at 00 UTC to 29 at 24 UTC
Wind 10 mph from the West/Northwest
Visibility: 6 miles
Scattered clouds at a height of 7000 ft
From 29 at 0300 UTC
Wind 3 mph from variable directions
Visibility: 6 miles
Few clouds at a height of 10000 ft
From 29 at 1400 UTC
Wind 10 mph from the North/Northwest
Visibility: 6 miles
Scattered clouds at a height of 5000 ft

TAF: KEVV 282320Z 2900/2924 29009KT P6SM SCT070 FM290300 VRB03KT P6SM FEW100 FM291400 33009KT P6SM SCT050

Weather observations and forecasts of more than 4000 airports (METAR and TAF reports).

The available stations are represented by yellow and red dots on the map.

Hover mouse over dot to see the name of the station.

Then click to see weather observations and forecasts.

To change the map : click on the green buttons with a black cross to zoom in, on the green button with a dash to zoom out, or on the green arrows for adjacent maps.


METAR-TAF: